Seaside, OR (97138)

8:01 PM PST on March 05, 2015 (GMT -0800)
APRSWXNET Cannon Beach OR US | Change Station
CLOSE
Current Station
Personal Weather Station
Location: Cannon Beach, OR
Elevation: 22 ft
Nearby Weather Stations

Elev 22 ft 45.89 °N, 123.96 °W | Updated 36 minutes ago

Partly Cloudy
Partly Cloudy
50 °F
Feels Like 50 °F
N
1
Wind Variable Wind from NE
Gusts 5.0 mph

Today
High -- | Low -- °F
--% Chance of Precip.
Yesterday
High -- | Low -- °F
Precip. -- in
6:47 AM 6:07 PM
Full, 100% visible
Pressure 30.35 in
Visibility 10.0 miles
Clouds Clear
Dew Point 42 °F
Humidity 74%
Rainfall in
Snow Depth Not available.
UV 0 out of 12
Pollen 5.90 out of 12
Air Quality Not available.
Flu Activity Not available.
METAR KAST 060355Z AUTO 00000KT 10SM CLR 08/04 A3034 RMK AO2 SLP275 T00780039

More Conditions Fewer Conditions

Pressure 30.35 in
Visibility 10.0 miles
Clouds Clear
Dew Point 42 °F
Humidity 74%
Rainfall in
Snow Depth Not available.
UV 0 out of 12
Pollen 5.90 out of 12
Air Quality Not available.
Flu Activity Not available.
METAR KAST 060355Z AUTO 00000KT 10SM CLR 08/04 A3034 RMK AO2 SLP275 T00780039

More Conditions Fewer Conditions

10-Day Weather Forecast

Almanac

Astronomy

Mar. 05, 2015 Rise Set
Actual Time
Civil Twilight
Nautical Twilight
Astronomical Twilight
Moon
Length of Visible Light
Length of Day
Tomorrow will be .
, % of the Moon is Illuminated

Today's Extremes

State Highs State Lows

Community

WunderPhotos

Upload Photos

1,803,176 photos uploaded!

WunderBlogs® & News

Nearby

Air Quality

  Air Quality AQ Index Pollutant
Not available.

Snow Depth

Station Depth Elevation

Earthquake Activity

City Distance Mag. Time & Date
Minimum magnitude displayed is 2.5.

Coastal Water Temperatures

Place Temperature

Nearby Weather Stations